sensor_id;sensor_type;location;lat;lon;timestamp;P1;durP1;ratioP1;P2;durP2;ratioP2
5823;SDS011;2938;52.254;12.988;2023-08-30T00:02:15;6.97;;;4.22;;
5823;SDS011;2938;52.254;12.988;2023-08-30T00:04:41;8.93;;;4.22;;
5823;SDS011;2938;52.254;12.988;2023-08-30T00:07:09;5.82;;;3.67;;
5823;SDS011;2938;52.254;12.988;2023-08-30T00:09:35;8.75;;;3.55;;
5823;SDS011;2938;52.254;12.988;2023-08-30T00:12:09;8.43;;;3.53;;
5823;SDS011;2938;52.254;12.988;2023-08-30T00:14:44;11.13;;;3.30;;
5823;SDS011;2938;52.254;12.988;2023-08-30T00:17:11;4.38;;;2.80;;
5823;SDS011;2938;52.254;12.988;2023-08-30T00:19:36;9.55;;;3.47;;
5823;SDS011;2938;52.254;12.988;2023-08-30T00:22:05;3.92;;;3.53;;
5823;SDS011;2938;52.254;12.988;2023-08-30T00:24:35;4.63;;;3.88;;
5823;SDS011;2938;52.254;12.988;2023-08-30T00:27:00;4.68;;;4.22;;
5823;SDS011;2938;52.254;12.988;2023-08-30T00:29:30;6.72;;;4.38;;
5823;SDS011;2938;52.254;12.988;2023-08-30T00:31:55;5.55;;;4.65;;
5823;SDS011;2938;52.254;12.988;2023-08-30T00:34:21;5.28;;;4.78;;
5823;SDS011;2938;52.254;12.988;2023-08-30T00:36:49;7.38;;;5.55;;
5823;SDS011;2938;52.254;12.988;2023-08-30T00:39:17;12.10;;;5.60;;
5823;SDS011;2938;52.254;12.988;2023-08-30T00:41:47;5.50;;;4.72;;
5823;SDS011;2938;52.254;12.988;2023-08-30T00:44:22;8.75;;;5.32;;
5823;SDS011;2938;52.254;12.988;2023-08-30T00:46:51;5.85;;;5.32;;
5823;SDS011;2938;52.254;12.988;2023-08-30T00:49:20;7.97;;;4.45;;
5823;SDS011;2938;52.254;12.988;2023-08-30T00:51:45;13.00;;;5.55;;
5823;SDS011;2938;52.254;12.988;2023-08-30T00:54:13;7.38;;;4.70;;
5823;SDS011;2938;52.254;12.988;2023-08-30T00:56:41;8.68;;;5.05;;
5823;SDS011;2938;52.254;12.988;2023-08-30T00:59:07;5.63;;;4.18;;
5823;SDS011;2938;52.254;12.988;2023-08-30T01:01:32;5.57;;;5.07;;
5823;SDS011;2938;52.254;12.988;2023-08-30T01:03:58;6.18;;;4.47;;
5823;SDS011;2938;52.254;12.988;2023-08-30T01:06:23;7.68;;;5.18;;
5823;SDS011;2938;52.254;12.988;2023-08-30T01:08:54;7.30;;;4.72;;
5823;SDS011;2938;52.254;12.988;2023-08-30T01:11:28;6.18;;;4.85;;
5823;SDS011;2938;52.254;12.988;2023-08-30T01:14:08;10.18;;;5.05;;
5823;SDS011;2938;52.254;12.988;2023-08-30T01:16:37;6.28;;;4.82;;
5823;SDS011;2938;52.254;12.988;2023-08-30T01:19:04;9.90;;;5.05;;
5823;SDS011;2938;52.254;12.988;2023-08-30T01:21:50;7.95;;;4.25;;
5823;SDS011;2938;52.254;12.988;2023-08-30T01:24:40;6.38;;;5.25;;
5823;SDS011;2938;52.254;12.988;2023-08-30T01:27:10;6.32;;;4.32;;
5823;SDS011;2938;52.254;12.988;2023-08-30T01:29:40;9.32;;;4.95;;
5823;SDS011;2938;52.254;12.988;2023-08-30T01:32:09;5.50;;;4.22;;
5823;SDS011;2938;52.254;12.988;2023-08-30T01:34:34;15.57;;;5.63;;
5823;SDS011;2938;52.254;12.988;2023-08-30T01:37:01;9.35;;;5.10;;
5823;SDS011;2938;52.254;12.988;2023-08-30T01:39:27;5.05;;;4.55;;
5823;SDS011;2938;52.254;12.988;2023-08-30T01:41:56;5.50;;;5.00;;
5823;SDS011;2938;52.254;12.988;2023-08-30T01:44:25;7.20;;;5.45;;
5823;SDS011;2938;52.254;12.988;2023-08-30T01:46:51;5.65;;;5.07;;
5823;SDS011;2938;52.254;12.988;2023-08-30T01:49:17;6.13;;;5.63;;
5823;SDS011;2938;52.254;12.988;2023-08-30T01:51:43;12.60;;;5.60;;
5823;SDS011;2938;52.254;12.988;2023-08-30T01:54:08;6.60;;;4.88;;
5823;SDS011;2938;52.254;12.988;2023-08-30T01:56:34;5.70;;;5.07;;
5823;SDS011;2938;52.254;12.988;2023-08-30T01:59:04;7.35;;;5.20;;
5823;SDS011;2938;52.254;12.988;2023-08-30T02:01:30;5.40;;;4.90;;
5823;SDS011;2938;52.254;12.988;2023-08-30T02:03:55;9.48;;;5.88;;
5823;SDS011;2938;52.254;12.988;2023-08-30T02:06:30;9.73;;;5.28;;
5823;SDS011;2938;52.254;12.988;2023-08-30T02:11:52;8.30;;;5.97;;
5823;SDS011;2938;52.254;12.988;2023-08-30T02:14:19;5.18;;;4.68;;
5823;SDS011;2938;52.254;12.988;2023-08-30T02:16:45;6.93;;;5.22;;
5823;SDS011;2938;52.254;12.988;2023-08-30T02:19:11;8.85;;;4.88;;
5823;SDS011;2938;52.254;12.988;2023-08-30T02:21:38;7.00;;;5.07;;
5823;SDS011;2938;52.254;12.988;2023-08-30T02:24:08;8.27;;;5.07;;
5823;SDS011;2938;52.254;12.988;2023-08-30T02:26:34;9.82;;;4.68;;
5823;SDS011;2938;52.254;12.988;2023-08-30T02:28:59;9.35;;;4.95;;
5823;SDS011;2938;52.254;12.988;2023-08-30T02:31:25;9.05;;;5.88;;
5823;SDS011;2938;52.254;12.988;2023-08-30T02:33:50;5.32;;;4.82;;
5823;SDS011;2938;52.254;12.988;2023-08-30T02:36:15;5.53;;;4.40;;
5823;SDS011;2938;52.254;12.988;2023-08-30T02:38:49;6.03;;;4.80;;
5823;SDS011;2938;52.254;12.988;2023-08-30T02:41:14;5.40;;;4.90;;
5823;SDS011;2938;52.254;12.988;2023-08-30T02:43:39;4.63;;;4.22;;
5823;SDS011;2938;52.254;12.988;2023-08-30T02:46:05;5.38;;;4.90;;
5823;SDS011;2938;52.254;12.988;2023-08-30T02:48:30;6.20;;;5.03;;
5823;SDS011;2938;52.254;12.988;2023-08-30T02:50:56;16.08;;;5.80;;
5823;SDS011;2938;52.254;12.988;2023-08-30T02:53:22;6.30;;;5.30;;
5823;SDS011;2938;52.254;12.988;2023-08-30T02:55:48;5.20;;;4.70;;
5823;SDS011;2938;52.254;12.988;2023-08-30T02:58:21;5.47;;;4.63;;
5823;SDS011;2938;52.254;12.988;2023-08-30T03:00:49;8.07;;;4.93;;
5823;SDS011;2938;52.254;12.988;2023-08-30T03:03:14;8.98;;;5.57;;
5823;SDS011;2938;52.254;12.988;2023-08-30T03:05:40;11.35;;;5.35;;
5823;SDS011;2938;52.254;12.988;2023-08-30T03:08:05;5.85;;;4.80;;
5823;SDS011;2938;52.254;12.988;2023-08-30T03:10:33;7.22;;;4.85;;
5823;SDS011;2938;52.254;12.988;2023-08-30T03:12:58;10.82;;;4.68;;
5823;SDS011;2938;52.254;12.988;2023-08-30T03:15:23;6.38;;;5.25;;
5823;SDS011;2938;52.254;12.988;2023-08-30T03:17:49;6.38;;;5.20;;
5823;SDS011;2938;52.254;12.988;2023-08-30T03:20:17;8.98;;;5.38;;
5823;SDS011;2938;52.254;12.988;2023-08-30T03:22:43;5.75;;;5.25;;
5823;SDS011;2938;52.254;12.988;2023-08-30T03:25:09;5.93;;;5.15;;
5823;SDS011;2938;52.254;12.988;2023-08-30T03:27:35;6.15;;;5.65;;
5823;SDS011;2938;52.254;12.988;2023-08-30T03:30:03;5.45;;;4.95;;
5823;SDS011;2938;52.254;12.988;2023-08-30T03:32:29;6.13;;;5.22;;
5823;SDS011;2938;52.254;12.988;2023-08-30T03:35:01;5.95;;;5.45;;
5823;SDS011;2938;52.254;12.988;2023-08-30T03:37:31;7.82;;;6.15;;
5823;SDS011;2938;52.254;12.988;2023-08-30T03:39:59;10.57;;;5.95;;
5823;SDS011;2938;52.254;12.988;2023-08-30T03:42:25;9.63;;;6.28;;
5823;SDS011;2938;52.254;12.988;2023-08-30T03:44:50;6.30;;;4.57;;
5823;SDS011;2938;52.254;12.988;2023-08-30T03:47:16;5.50;;;4.97;;
5823;SDS011;2938;52.254;12.988;2023-08-30T03:49:41;6.43;;;5.85;;
5823;SDS011;2938;52.254;12.988;2023-08-30T03:52:06;6.05;;;5.32;;
5823;SDS011;2938;52.254;12.988;2023-08-30T03:54:35;5.63;;;5.13;;
5823;SDS011;2938;52.254;12.988;2023-08-30T03:57:04;7.60;;;5.80;;
5823;SDS011;2938;52.254;12.988;2023-08-30T03:59:29;11.90;;;5.13;;
5823;SDS011;2938;52.254;12.988;2023-08-30T04:02:08;6.55;;;5.70;;
5823;SDS011;2938;52.254;12.988;2023-08-30T04:04:36;7.20;;;6.50;;
5823;SDS011;2938;52.254;12.988;2023-08-30T04:07:04;6.40;;;5.80;;
5823;SDS011;2938;52.254;12.988;2023-08-30T04:09:35;7.10;;;5.93;;
5823;SDS011;2938;52.254;12.988;2023-08-30T04:12:00;6.07;;;5.47;;
5823;SDS011;2938;52.254;12.988;2023-08-30T04:14:26;13.20;;;5.88;;
5823;SDS011;2938;52.254;12.988;2023-08-30T04:16:54;10.82;;;5.93;;
5823;SDS011;2938;52.254;12.988;2023-08-30T04:19:44;13.90;;;5.65;;
5823;SDS011;2938;52.254;12.988;2023-08-30T04:33:33;6.65;;;5.90;;
5823;SDS011;2938;52.254;12.988;2023-08-30T04:36:30;7.57;;;6.72;;
5823;SDS011;2938;52.254;12.988;2023-08-30T04:39:04;6.30;;;5.13;;
5823;SDS011;2938;52.254;12.988;2023-08-30T04:42:01;7.35;;;5.95;;
5823;SDS011;2938;52.254;12.988;2023-08-30T04:50:57;9.48;;;8.20;;
5823;SDS011;2938;52.254;12.988;2023-08-30T04:53:40;12.18;;;7.60;;
5823;SDS011;2938;52.254;12.988;2023-08-30T04:57:21;9.27;;;8.32;;
5823;SDS011;2938;52.254;12.988;2023-08-30T05:03:26;9.55;;;8.05;;
5823;SDS011;2938;52.254;12.988;2023-08-30T05:08:55;9.85;;;8.15;;
5823;SDS011;2938;52.254;12.988;2023-08-30T05:11:26;9.60;;;8.65;;
5823;SDS011;2938;52.254;12.988;2023-08-30T05:13:54;12.20;;;8.80;;
5823;SDS011;2938;52.254;12.988;2023-08-30T05:19:43;9.77;;;8.77;;
5823;SDS011;2938;52.254;12.988;2023-08-30T05:22:09;11.57;;;9.65;;
5823;SDS011;2938;52.254;12.988;2023-08-30T05:25:02;10.27;;;8.07;;
5823;SDS011;2938;52.254;12.988;2023-08-30T05:27:27;11.65;;;8.77;;
5823;SDS011;2938;52.254;12.988;2023-08-30T05:29:52;8.93;;;7.18;;
5823;SDS011;2938;52.254;12.988;2023-08-30T05:32:18;11.88;;;8.65;;
5823;SDS011;2938;52.254;12.988;2023-08-30T05:34:43;11.88;;;8.05;;
5823;SDS011;2938;52.254;12.988;2023-08-30T05:37:08;8.50;;;7.55;;
5823;SDS011;2938;52.254;12.988;2023-08-30T05:39:34;11.30;;;7.68;;
5823;SDS011;2938;52.254;12.988;2023-08-30T05:42:11;11.52;;;8.30;;
5823;SDS011;2938;52.254;12.988;2023-08-30T05:44:59;12.23;;;8.18;;
5823;SDS011;2938;52.254;12.988;2023-08-30T05:47:27;10.10;;;8.63;;
5823;SDS011;2938;52.254;12.988;2023-08-30T05:49:58;17.63;;;8.93;;
5823;SDS011;2938;52.254;12.988;2023-08-30T05:52:30;18.98;;;9.93;;
5823;SDS011;2938;52.254;12.988;2023-08-30T05:55:04;10.50;;;8.52;;
5823;SDS011;2938;52.254;12.988;2023-08-30T05:57:30;9.02;;;8.30;;
5823;SDS011;2938;52.254;12.988;2023-08-30T05:59:58;12.13;;;8.80;;
5823;SDS011;2938;52.254;12.988;2023-08-30T06:02:30;8.35;;;7.53;;
5823;SDS011;2938;52.254;12.988;2023-08-30T06:05:02;9.43;;;8.27;;
5823;SDS011;2938;52.254;12.988;2023-08-30T06:07:30;9.50;;;8.68;;
5823;SDS011;2938;52.254;12.988;2023-08-30T06:09:56;9.40;;;8.38;;
5823;SDS011;2938;52.254;12.988;2023-08-30T06:12:33;8.52;;;7.63;;
5823;SDS011;2938;52.254;12.988;2023-08-30T06:15:02;15.52;;;7.55;;
5823;SDS011;2938;52.254;12.988;2023-08-30T06:17:28;12.15;;;7.88;;
5823;SDS011;2938;52.254;12.988;2023-08-30T06:19:54;8.00;;;7.20;;
5823;SDS011;2938;52.254;12.988;2023-08-30T06:22:19;8.90;;;7.88;;
5823;SDS011;2938;52.254;12.988;2023-08-30T06:24:44;8.40;;;7.68;;
5823;SDS011;2938;52.254;12.988;2023-08-30T06:27:10;10.25;;;9.27;;
5823;SDS011;2938;52.254;12.988;2023-08-30T06:29:35;12.48;;;9.10;;
5823;SDS011;2938;52.254;12.988;2023-08-30T06:32:04;9.48;;;8.07;;
5823;SDS011;2938;52.254;12.988;2023-08-30T06:34:30;8.98;;;8.13;;
5823;SDS011;2938;52.254;12.988;2023-08-30T06:36:55;8.25;;;7.45;;
5823;SDS011;2938;52.254;12.988;2023-08-30T06:39:21;8.05;;;7.32;;
5823;SDS011;2938;52.254;12.988;2023-08-30T06:41:46;10.55;;;7.68;;
5823;SDS011;2938;52.254;12.988;2023-08-30T06:44:12;8.48;;;7.68;;
5823;SDS011;2938;52.254;12.988;2023-08-30T06:46:37;10.05;;;9.05;;
5823;SDS011;2938;52.254;12.988;2023-08-30T06:49:05;13.35;;;9.00;;
5823;SDS011;2938;52.254;12.988;2023-08-30T06:51:30;7.88;;;7.15;;
5823;SDS011;2938;52.254;12.988;2023-08-30T06:53:56;9.10;;;8.07;;
5823;SDS011;2938;52.254;12.988;2023-08-30T06:56:25;11.13;;;8.20;;
5823;SDS011;2938;52.254;12.988;2023-08-30T06:58:50;10.48;;;9.18;;
5823;SDS011;2938;52.254;12.988;2023-08-30T07:01:16;9.13;;;8.23;;
5823;SDS011;2938;52.254;12.988;2023-08-30T07:03:41;8.77;;;8.07;;
5823;SDS011;2938;52.254;12.988;2023-08-30T07:06:06;13.55;;;8.82;;
5823;SDS011;2938;52.254;12.988;2023-08-30T07:08:32;7.90;;;7.20;;
5823;SDS011;2938;52.254;12.988;2023-08-30T07:10:58;9.98;;;8.10;;
5823;SDS011;2938;52.254;12.988;2023-08-30T07:13:23;8.10;;;7.35;;
5823;SDS011;2938;52.254;12.988;2023-08-30T07:15:51;9.02;;;7.13;;
5823;SDS011;2938;52.254;12.988;2023-08-30T07:18:16;14.93;;;7.95;;
5823;SDS011;2938;52.254;12.988;2023-08-30T07:20:42;7.45;;;6.85;;
5823;SDS011;2938;52.254;12.988;2023-08-30T07:23:07;7.53;;;6.38;;
5823;SDS011;2938;52.254;12.988;2023-08-30T07:25:38;8.70;;;7.72;;
5823;SDS011;2938;52.254;12.988;2023-08-30T07:28:13;8.68;;;7.15;;
5823;SDS011;2938;52.254;12.988;2023-08-30T07:30:41;6.32;;;5.72;;
5823;SDS011;2938;52.254;12.988;2023-08-30T07:33:09;6.93;;;6.22;;
5823;SDS011;2938;52.254;12.988;2023-08-30T07:35:35;8.43;;;5.75;;
5823;SDS011;2938;52.254;12.988;2023-08-30T07:38:00;6.15;;;5.60;;
5823;SDS011;2938;52.254;12.988;2023-08-30T07:40:28;6.03;;;5.18;;
5823;SDS011;2938;52.254;12.988;2023-08-30T07:42:54;7.38;;;6.35;;
5823;SDS011;2938;52.254;12.988;2023-08-30T07:45:22;6.95;;;6.32;;
5823;SDS011;2938;52.254;12.988;2023-08-30T07:47:47;6.68;;;6.07;;
5823;SDS011;2938;52.254;12.988;2023-08-30T07:50:13;9.18;;;6.28;;
5823;SDS011;2938;52.254;12.988;2023-08-30T07:52:41;8.18;;;6.47;;
5823;SDS011;2938;52.254;12.988;2023-08-30T07:55:06;7.05;;;5.63;;
5823;SDS011;2938;52.254;12.988;2023-08-30T07:57:32;8.80;;;5.53;;
5823;SDS011;2938;52.254;12.988;2023-08-30T07:59:57;7.63;;;6.93;;
5823;SDS011;2938;52.254;12.988;2023-08-30T08:02:25;6.07;;;5.50;;
5823;SDS011;2938;52.254;12.988;2023-08-30T08:04:51;9.45;;;6.18;;
5823;SDS011;2938;52.254;12.988;2023-08-30T08:07:17;8.75;;;6.00;;
5823;SDS011;2938;52.254;12.988;2023-08-30T08:09:45;8.35;;;6.43;;
5823;SDS011;2938;52.254;12.988;2023-08-30T08:12:10;7.05;;;6.35;;
5823;SDS011;2938;52.254;12.988;2023-08-30T08:14:39;6.45;;;5.45;;
5823;SDS011;2938;52.254;12.988;2023-08-30T08:17:04;10.27;;;6.10;;
5823;SDS011;2938;52.254;12.988;2023-08-30T08:19:29;8.02;;;7.32;;
5823;SDS011;2938;52.254;12.988;2023-08-30T08:21:55;6.57;;;5.77;;
5823;SDS011;2938;52.254;12.988;2023-08-30T08:24:20;11.05;;;6.45;;
5823;SDS011;2938;52.254;12.988;2023-08-30T08:26:46;6.97;;;6.13;;
5823;SDS011;2938;52.254;12.988;2023-08-30T08:29:11;15.02;;;8.30;;
5823;SDS011;2938;52.254;12.988;2023-08-30T08:31:37;7.05;;;6.43;;
5823;SDS011;2938;52.254;12.988;2023-08-30T08:34:20;12.25;;;6.88;;
5823;SDS011;2938;52.254;12.988;2023-08-30T08:36:46;7.38;;;6.57;;
5823;SDS011;2938;52.254;12.988;2023-08-30T08:39:12;8.43;;;6.88;;
5823;SDS011;2938;52.254;12.988;2023-08-30T08:41:41;7.97;;;6.55;;
5823;SDS011;2938;52.254;12.988;2023-08-30T08:44:07;9.48;;;7.50;;
5823;SDS011;2938;52.254;12.988;2023-08-30T08:46:33;9.20;;;8.10;;
5823;SDS011;2938;52.254;12.988;2023-08-30T08:49:01;7.63;;;6.93;;
5823;SDS011;2938;52.254;12.988;2023-08-30T08:51:30;8.52;;;7.18;;
5823;SDS011;2938;52.254;12.988;2023-08-30T08:53:58;8.95;;;8.05;;
5823;SDS011;2938;52.254;12.988;2023-08-30T08:56:28;10.43;;;9.43;;
5823;SDS011;2938;52.254;12.988;2023-08-30T08:58:55;9.52;;;7.30;;
5823;SDS011;2938;52.254;12.988;2023-08-30T09:01:21;7.82;;;7.03;;
5823;SDS011;2938;52.254;12.988;2023-08-30T09:06:24;9.25;;;6.55;;
5823;SDS011;2938;52.254;12.988;2023-08-30T09:08:49;12.75;;;6.55;;
5823;SDS011;2938;52.254;12.988;2023-08-30T09:11:15;11.75;;;6.57;;
5823;SDS011;2938;52.254;12.988;2023-08-30T09:13:44;6.60;;;6.00;;
5823;SDS011;2938;52.254;12.988;2023-08-30T09:16:13;6.07;;;5.38;;
5823;SDS011;2938;52.254;12.988;2023-08-30T09:18:41;8.95;;;5.72;;
5823;SDS011;2938;52.254;12.988;2023-08-30T09:21:08;6.60;;;6.00;;
5823;SDS011;2938;52.254;12.988;2023-08-30T09:23:35;6.97;;;5.72;;
5823;SDS011;2938;52.254;12.988;2023-08-30T09:26:01;8.93;;;5.93;;
5823;SDS011;2938;52.254;12.988;2023-08-30T09:28:27;6.32;;;5.55;;
5823;SDS011;2938;52.254;12.988;2023-08-30T09:30:53;7.90;;;5.20;;
5823;SDS011;2938;52.254;12.988;2023-08-30T09:33:21;6.10;;;5.50;;
5823;SDS011;2938;52.254;12.988;2023-08-30T09:35:47;6.28;;;5.65;;
5823;SDS011;2938;52.254;12.988;2023-08-30T09:38:19;7.25;;;4.15;;
5823;SDS011;2938;52.254;12.988;2023-08-30T09:40:44;10.15;;;5.57;;
5823;SDS011;2938;52.254;12.988;2023-08-30T09:43:10;5.65;;;5.05;;
5823;SDS011;2938;52.254;12.988;2023-08-30T09:45:36;9.65;;;3.83;;
5823;SDS011;2938;52.254;12.988;2023-08-30T09:48:02;4.70;;;4.32;;
5823;SDS011;2938;52.254;12.988;2023-08-30T09:50:28;5.43;;;4.93;;
5823;SDS011;2938;52.254;12.988;2023-08-30T09:52:57;5.70;;;5.20;;
5823;SDS011;2938;52.254;12.988;2023-08-30T09:55:22;5.40;;;4.97;;
5823;SDS011;2938;52.254;12.988;2023-08-30T09:57:48;7.65;;;4.97;;
5823;SDS011;2938;52.254;12.988;2023-08-30T10:00:14;8.32;;;6.63;;
5823;SDS011;2938;52.254;12.988;2023-08-30T10:02:41;6.82;;;5.03;;
5823;SDS011;2938;52.254;12.988;2023-08-30T10:05:08;5.97;;;3.97;;
5823;SDS011;2938;52.254;12.988;2023-08-30T10:07:34;4.75;;;4.25;;
5823;SDS011;2938;52.254;12.988;2023-08-30T10:10:01;4.05;;;3.75;;
5823;SDS011;2938;52.254;12.988;2023-08-30T10:12:29;4.18;;;3.60;;
5823;SDS011;2938;52.254;12.988;2023-08-30T10:14:58;7.70;;;3.67;;
5823;SDS011;2938;52.254;12.988;2023-08-30T10:17:32;5.20;;;4.30;;
5823;SDS011;2938;52.254;12.988;2023-08-30T10:20:03;6.20;;;3.90;;
5823;SDS011;2938;52.254;12.988;2023-08-30T10:22:35;4.35;;;3.92;;
5823;SDS011;2938;52.254;12.988;2023-08-30T10:25:04;8.40;;;3.55;;
5823;SDS011;2938;52.254;12.988;2023-08-30T10:27:33;8.10;;;3.50;;
5823;SDS011;2938;52.254;12.988;2023-08-30T10:30:05;5.13;;;4.63;;
5823;SDS011;2938;52.254;12.988;2023-08-30T10:32:32;5.93;;;4.25;;
5823;SDS011;2938;52.254;12.988;2023-08-30T10:35:03;6.93;;;3.50;;
5823;SDS011;2938;52.254;12.988;2023-08-30T10:37:29;7.35;;;3.85;;
5823;SDS011;2938;52.254;12.988;2023-08-30T10:40:04;3.15;;;2.85;;
5823;SDS011;2938;52.254;12.988;2023-08-30T10:42:34;5.03;;;3.15;;
5823;SDS011;2938;52.254;12.988;2023-08-30T10:45:06;2.60;;;2.40;;
5823;SDS011;2938;52.254;12.988;2023-08-30T10:47:35;5.28;;;2.65;;
5823;SDS011;2938;52.254;12.988;2023-08-30T10:50:06;2.47;;;2.28;;
5823;SDS011;2938;52.254;12.988;2023-08-30T10:52:38;4.93;;;2.22;;
5823;SDS011;2938;52.254;12.988;2023-08-30T10:55:04;2.35;;;2.15;;
5823;SDS011;2938;52.254;12.988;2023-08-30T10:57:37;2.30;;;1.85;;
5823;SDS011;2938;52.254;12.988;2023-08-30T11:02:45;3.10;;;1.67;;
5823;SDS011;2938;52.254;12.988;2023-08-30T11:05:12;3.60;;;1.67;;
5823;SDS011;2938;52.254;12.988;2023-08-30T11:07:38;4.65;;;1.85;;
5823;SDS011;2938;52.254;12.988;2023-08-30T11:10:06;5.07;;;1.85;;
5823;SDS011;2938;52.254;12.988;2023-08-30T11:12:40;3.35;;;1.90;;
5823;SDS011;2938;52.254;12.988;2023-08-30T11:15:09;2.78;;;1.92;;
5823;SDS011;2938;52.254;12.988;2023-08-30T11:17:39;3.72;;;2.38;;
5823;SDS011;2938;52.254;12.988;2023-08-30T11:20:08;9.27;;;2.58;;
5823;SDS011;2938;52.254;12.988;2023-08-30T11:22:45;4.88;;;2.38;;
5823;SDS011;2938;52.254;12.988;2023-08-30T11:25:11;4.57;;;1.63;;
5823;SDS011;2938;52.254;12.988;2023-08-30T11:27:41;3.08;;;1.55;;
5823;SDS011;2938;52.254;12.988;2023-08-30T11:30:09;3.65;;;2.20;;
5823;SDS011;2938;52.254;12.988;2023-08-30T11:32:36;2.90;;;1.60;;
5823;SDS011;2938;52.254;12.988;2023-08-30T11:35:02;1.98;;;1.75;;
5823;SDS011;2938;52.254;12.988;2023-08-30T11:37:28;9.20;;;2.45;;
5823;SDS011;2938;52.254;12.988;2023-08-30T11:39:54;5.93;;;1.70;;
5823;SDS011;2938;52.254;12.988;2023-08-30T11:42:23;4.25;;;1.80;;
5823;SDS011;2938;52.254;12.988;2023-08-30T11:44:51;1.77;;;1.63;;
5823;SDS011;2938;52.254;12.988;2023-08-30T11:47:23;2.58;;;2.22;;
5823;SDS011;2938;52.254;12.988;2023-08-30T11:49:49;4.15;;;2.08;;
5823;SDS011;2938;52.254;12.988;2023-08-30T11:52:15;4.43;;;1.92;;
5823;SDS011;2938;52.254;12.988;2023-08-30T11:54:45;2.35;;;2.20;;
5823;SDS011;2938;52.254;12.988;2023-08-30T11:57:18;4.93;;;2.20;;
5823;SDS011;2938;52.254;12.988;2023-08-30T11:59:50;2.73;;;2.43;;
5823;SDS011;2938;52.254;12.988;2023-08-30T12:02:16;2.65;;;1.45;;
5823;SDS011;2938;52.254;12.988;2023-08-30T12:04:48;2.10;;;1.90;;
5823;SDS011;2938;52.254;12.988;2023-08-30T12:07:22;3.53;;;2.00;;
5823;SDS011;2938;52.254;12.988;2023-08-30T12:09:48;2.88;;;1.63;;
5823;SDS011;2938;52.254;12.988;2023-08-30T12:12:13;1.98;;;1.75;;
5823;SDS011;2938;52.254;12.988;2023-08-30T12:14:39;2.42;;;1.63;;
5823;SDS011;2938;52.254;12.988;2023-08-30T12:17:04;3.97;;;1.45;;
5823;SDS011;2938;52.254;12.988;2023-08-30T12:19:31;1.42;;;1.33;;
5823;SDS011;2938;52.254;12.988;2023-08-30T12:22:09;1.55;;;1.45;;
5823;SDS011;2938;52.254;12.988;2023-08-30T12:24:42;9.05;;;1.92;;
5823;SDS011;2938;52.254;12.988;2023-08-30T12:27:21;2.25;;;1.70;;
5823;SDS011;2938;52.254;12.988;2023-08-30T12:29:53;3.58;;;1.75;;
5823;SDS011;2938;52.254;12.988;2023-08-30T12:32:21;2.70;;;1.73;;
5823;SDS011;2938;52.254;12.988;2023-08-30T12:34:46;2.30;;;1.60;;
5823;SDS011;2938;52.254;12.988;2023-08-30T12:37:14;4.87;;;2.40;;
5823;SDS011;2938;52.254;12.988;2023-08-30T12:39:46;4.63;;;1.98;;
5823;SDS011;2938;52.254;12.988;2023-08-30T12:42:17;7.47;;;5.45;;
5823;SDS011;2938;52.254;12.988;2023-08-30T12:44:45;3.40;;;2.60;;
5823;SDS011;2938;52.254;12.988;2023-08-30T12:47:11;6.28;;;3.47;;
5823;SDS011;2938;52.254;12.988;2023-08-30T12:49:48;6.13;;;3.03;;
5823;SDS011;2938;52.254;12.988;2023-08-30T12:52:20;8.13;;;3.20;;
5823;SDS011;2938;52.254;12.988;2023-08-30T12:54:55;7.78;;;2.40;;
5823;SDS011;2938;52.254;12.988;2023-08-30T12:57:26;5.30;;;2.63;;
5823;SDS011;2938;52.254;12.988;2023-08-30T12:59:57;3.33;;;2.83;;
5823;SDS011;2938;52.254;12.988;2023-08-30T13:02:41;3.58;;;3.00;;
5823;SDS011;2938;52.254;12.988;2023-08-30T13:05:07;2.42;;;2.00;;
5823;SDS011;2938;52.254;12.988;2023-08-30T13:07:39;3.88;;;1.77;;
5823;SDS011;2938;52.254;12.988;2023-08-30T13:10:05;3.80;;;2.30;;
5823;SDS011;2938;52.254;12.988;2023-08-30T13:12:31;4.38;;;1.92;;
5823;SDS011;2938;52.254;12.988;2023-08-30T13:15:08;4.60;;;1.92;;
5823;SDS011;2938;52.254;12.988;2023-08-30T13:17:42;4.60;;;2.33;;
5823;SDS011;2938;52.254;12.988;2023-08-30T13:20:08;2.45;;;2.22;;
5823;SDS011;2938;52.254;12.988;2023-08-30T13:22:40;2.50;;;2.10;;
5823;SDS011;2938;52.254;12.988;2023-08-30T13:25:06;3.22;;;2.08;;
5823;SDS011;2938;52.254;12.988;2023-08-30T13:27:32;6.03;;;2.65;;
5823;SDS011;2938;52.254;12.988;2023-08-30T13:30:01;2.45;;;2.10;;
5823;SDS011;2938;52.254;12.988;2023-08-30T13:32:32;3.00;;;2.28;;
5823;SDS011;2938;52.254;12.988;2023-08-30T13:35:01;2.72;;;1.95;;
5823;SDS011;2938;52.254;12.988;2023-08-30T13:37:33;6.07;;;3.08;;
5823;SDS011;2938;52.254;12.988;2023-08-30T13:40:01;2.30;;;2.10;;
5823;SDS011;2938;52.254;12.988;2023-08-30T13:42:34;3.90;;;2.25;;
5823;SDS011;2938;52.254;12.988;2023-08-30T13:45:04;3.05;;;2.17;;
5823;SDS011;2938;52.254;12.988;2023-08-30T13:47:34;3.47;;;1.75;;
5823;SDS011;2938;52.254;12.988;2023-08-30T13:50:09;2.85;;;2.15;;
5823;SDS011;2938;52.254;12.988;2023-08-30T13:52:34;2.63;;;2.38;;
5823;SDS011;2938;52.254;12.988;2023-08-30T13:54:59;5.13;;;2.90;;
5823;SDS011;2938;52.254;12.988;2023-08-30T13:57:25;3.63;;;2.27;;
5823;SDS011;2938;52.254;12.988;2023-08-30T13:59:50;9.27;;;2.65;;
5823;SDS011;2938;52.254;12.988;2023-08-30T14:02:15;7.38;;;3.00;;
5823;SDS011;2938;52.254;12.988;2023-08-30T14:04:41;3.17;;;2.28;;
5823;SDS011;2938;52.254;12.988;2023-08-30T14:07:06;5.40;;;2.85;;
5823;SDS011;2938;52.254;12.988;2023-08-30T14:09:32;2.92;;;2.33;;
5823;SDS011;2938;52.254;12.988;2023-08-30T14:11:57;2.63;;;2.10;;
5823;SDS011;2938;52.254;12.988;2023-08-30T14:14:22;4.22;;;2.22;;
5823;SDS011;2938;52.254;12.988;2023-08-30T14:16:48;3.85;;;2.17;;
5823;SDS011;2938;52.254;12.988;2023-08-30T14:19:14;6.53;;;2.58;;
5823;SDS011;2938;52.254;12.988;2023-08-30T14:21:43;3.22;;;1.95;;
5823;SDS011;2938;52.254;12.988;2023-08-30T14:24:08;4.38;;;2.40;;
5823;SDS011;2938;52.254;12.988;2023-08-30T14:26:34;3.80;;;2.33;;
5823;SDS011;2938;52.254;12.988;2023-08-30T14:29:09;3.15;;;2.25;;
5823;SDS011;2938;52.254;12.988;2023-08-30T14:31:35;2.33;;;2.05;;
5823;SDS011;2938;52.254;12.988;2023-08-30T14:34:00;3.75;;;2.60;;
5823;SDS011;2938;52.254;12.988;2023-08-30T14:36:26;5.03;;;2.10;;
5823;SDS011;2938;52.254;12.988;2023-08-30T14:38:51;6.07;;;2.33;;
5823;SDS011;2938;52.254;12.988;2023-08-30T14:41:16;9.18;;;2.40;;
5823;SDS011;2938;52.254;12.988;2023-08-30T14:43:45;5.85;;;2.53;;
5823;SDS011;2938;52.254;12.988;2023-08-30T14:46:14;5.20;;;2.63;;
5823;SDS011;2938;52.254;12.988;2023-08-30T14:48:43;3.78;;;2.80;;
5823;SDS011;2938;52.254;12.988;2023-08-30T14:51:14;3.53;;;1.80;;
5823;SDS011;2938;52.254;12.988;2023-08-30T14:53:46;7.85;;;1.95;;
5823;SDS011;2938;52.254;12.988;2023-08-30T14:59:34;5.20;;;2.05;;
5823;SDS011;2938;52.254;12.988;2023-08-30T15:02:23;2.78;;;2.55;;
5823;SDS011;2938;52.254;12.988;2023-08-30T15:04:52;3.97;;;2.15;;
5823;SDS011;2938;52.254;12.988;2023-08-30T15:07:29;3.10;;;2.47;;
5823;SDS011;2938;52.254;12.988;2023-08-30T15:09:57;4.45;;;2.80;;
5823;SDS011;2938;52.254;12.988;2023-08-30T15:12:22;4.30;;;2.13;;
5823;SDS011;2938;52.254;12.988;2023-08-30T15:14:50;2.75;;;2.05;;
5823;SDS011;2938;52.254;12.988;2023-08-30T15:17:20;6.13;;;2.45;;
5823;SDS011;2938;52.254;12.988;2023-08-30T15:19:51;3.40;;;2.53;;
5823;SDS011;2938;52.254;12.988;2023-08-30T15:22:19;3.72;;;2.53;;
5823;SDS011;2938;52.254;12.988;2023-08-30T15:24:51;4.85;;;2.47;;
5823;SDS011;2938;52.254;12.988;2023-08-30T15:27:22;2.63;;;2.28;;
5823;SDS011;2938;52.254;12.988;2023-08-30T15:29:50;2.90;;;2.70;;
5823;SDS011;2938;52.254;12.988;2023-08-30T15:32:21;5.97;;;2.63;;
5823;SDS011;2938;52.254;12.988;2023-08-30T15:34:58;4.13;;;2.65;;
5823;SDS011;2938;52.254;12.988;2023-08-30T15:37:23;3.25;;;2.45;;
5823;SDS011;2938;52.254;12.988;2023-08-30T15:39:58;6.30;;;2.88;;
5823;SDS011;2938;52.254;12.988;2023-08-30T15:42:28;2.33;;;2.13;;
5823;SDS011;2938;52.254;12.988;2023-08-30T15:44:53;6.78;;;2.20;;
5823;SDS011;2938;52.254;12.988;2023-08-30T15:47:22;4.00;;;2.63;;
5823;SDS011;2938;52.254;12.988;2023-08-30T15:49:52;2.53;;;1.83;;